Airfield :
LOGIN :

Register | Disclaimer

   EN    FR    IT 

 










Legend :    VFR   Marginal VFR   IFR   Intensive IFR   Very Intensive IFR
Visi :
Ceiling :
>= 8 km
>= 3000ft
5 to 8 km
1000 to 3000 ft
1500m to 5 km
500 to 1000 ft
800 to 1500m
200 to 500 ft
< 800m
< 200 ft
Symbols :   Thunderstorms  Fog  Heavy snow  Heavy precipitations  Wind > 20 kt
SIGMETs :     Misc.  Thunderstorms  Icing  Turbulence  Mountain Waves  Volcanic Ashes






- Airport Elevation : 55 ft
- IATA code : DSA


EGCN - Robin Hood Doncaster Sheffield

CURRENT METAR :
  • 192220Z 08004KT 050V120 CAVOK 12/11 Q1013

EXPIRED METARs :
  • 192150Z VRB03KT 9999 FEW014 12/10 Q1014
  • 192120Z VRB03KT CAVOK 12/10 Q1014
  • 192050Z VRB03KT CAVOK 12/10 Q1014
  • 192020Z 09005KT 050V130 CAVOK 13/10 Q1014
  • 191950Z 08005KT 040V110 CAVOK 14/10 Q1013

TAF TAF EGCN
Valid from the 19 at 18:00 until the 20 at 18:00 UTC


191700Z 1918/2018 11010KT 9999 SCT025
BECMG 1921/1924 05006KT
TEMPO 1921/2012 7000 -RADZ BKN010
PROB40
TEMPO 2000/2006 BKN006
PROB30
TEMPO 2000/2004 4000 SHRA RADZ



MET'MAP, your aeronautical weather chart ! - Copyright ORBIFLY December 2007 - Disclaimer

ORBIFLY MET'MAP TEAM :

Programming & Development : Alexandra Zaïnal
Concept & original design : Baudouin d'Aumeries
Assistance for programming : Marc-Olivier Méhu
Technical & hardware support : Manuel Goepfert

Contact : metmap@orbifly.com




SOURCES & CREDITS :

   NOAA